Skip to content
You are here: Gozo Weather
Gozo Weather Station for the very latest live weather conditions from Gozo and Malta
 
 TIME   TEMPERATURE   WINDSPEED   DIRECTION   HUMIDITY   BAROMETER   RAINFALL 
12:06 25.7°C (78.3°F) 16.7 kmh (10.4 mph) NNE 62% 1011.0hPa (29.85 inHg) 0.0mm (0.00 in.)
11:06 25.6°C (78.1 °F) 7.4 kmh (4.6 mph) WNW 61% 1011.0hPa (29.85 inHg) 0.0mm (0.00 in.)
10:06 25.9°C (78.6 °F) 7.4 kmh (4.6 mph) SW 58% 1009.0hPa (29.80 inHg) 0.0mm (0.00 in.)
9:06 25.7°C (78.3 °F) 11.1 kmh (6.9 mph) SW 58% 1009.0hPa (29.80 inHg) 0.0mm (0.00 in.)
8:06 26.2°C (79.2 °F) 11.1 kmh (6.9 mph) WSW 56% 1008.0hPa (29.77 inHg) 0.0mm (0.00 in.)
7:06 26.1°C (79.0 °F) 14.8 kmh (9.2 mph) W 54% 1009.0hPa (29.80 inHg) 0.0mm (0.00 in.)
6:06 26.1°C (79.0 °F) 13.0 kmh (8.1 mph) W 63% 1009.0hPa (29.80 inHg) 0.0mm (0.00 in.)
5:06 27.7°C (81.9 °F) 20.4 kmh (12.7 mph) WSW 61% 1010.0hPa (29.83 inHg) 0.0mm (0.00 in.)
4:06 31.0°C (87.8 °F) 13.0 kmh (8.1 mph) WSW 47% 1011.0hPa (29.85 inHg) 0.0mm (0.00 in.)
3:03 32.2°C (90.0 °F) 16.7 kmh (10.4 mph) WSW 36% 1011.0hPa (29.85 inHg) 0.0mm (0.00 in.)
2:03 31.3°C (88.3 °F) 0.0 kmh (0.0 mph) WSW 48% 1011.0hPa (29.85 inHg) 0.0mm (0.00 in.)
1:03 27.0°C (80.6 °F) 14.8 kmh (9.2 mph) SW 61% 1012.0hPa (29.88 inHg) 0.0mm (0.00 in.)
12:03 26.9°C (80.4 °F) 3.7 kmh (2.3 mph) WSW 67% 1012.0hPa (29.88 inHg) 0.0mm (0.00 in.)
11:03 26.3°C (79.3 °F) 9.3 kmh (5.8 mph) W 70% 1012.0hPa (29.88 inHg) 0.0mm (0.00 in.)
10:03 25.7°C (78.3 °F) 13.0 kmh (8.1 mph) WSW 74% 1012.0hPa (29.88 inHg) 0.0mm (0.00 in.)
9:03 24.8°C (76.6 °F) 7.4 kmh (4.6 mph) W 77% 1012.0hPa (29.88 inHg) 0.0mm (0.00 in.)
8:03 23.2°C (73.8 °F) 11.1 kmh (6.9 mph) WSW 77% 1012.0hPa (29.88 inHg) 0.0mm (0.00 in.)
7:03 23.1°C (73.6 °F) 3.7 kmh (2.3 mph) W 74% 1011.0hPa (29.85 inHg) 0.0mm (0.00 in.)
6:03 23.0°C (73.4 °F) 0.0 kmh (0.0 mph) W 73% 1011.0hPa (29.85 inHg) 0.0mm (0.00 in.)
5:03 23.0°C (73.4 °F) 11.1 kmh (6.9 mph) W 72% 1011.0hPa (29.85 inHg) 0.0mm (0.00 in.)
4:03 23.2°C (73.8 °F) 0.0 kmh (0.0 mph) W 72% 1011.0hPa (29.85 inHg) 0.0mm (0.00 in.)
3:03 23.2°C (73.8 °F) 13.0 kmh (8.1 mph) WNW 71% 1012.0hPa (29.88 inHg) 0.0mm (0.00 in.)
2:03 23.3°C (73.9 °F) 0.0 kmh (0.0 mph) W 70% 1012.0hPa (29.88 inHg) 0.0mm (0.00 in.)
1:03 23.4°C (74.1 °F) 5.6 kmh (3.5 mph) W 69% 1012.0hPa (29.88 inHg) 0.0mm (0.00 in.)

You need the latest version of Flash Player to view some of our content.


Why not download and install the latest version now?
It will only take you a moment and will ensure that you can view all the latest flash designed websites.

Translate this page

Animated Satellite

Click per aprire http://www.gozo.ws/Animation.php
copyright 2014 EUMETSAT

European Lightning Activity


Please click image for full size

Sponsored Links